createdAt,value
2023-05-06T00:00:00.172Z,783.00
2023-05-06T00:01:00.184Z,785.00
2023-05-06T00:02:00.181Z,787.00
2023-05-06T00:03:00.280Z,790.00
2023-05-06T00:04:00.312Z,792.00
2023-05-06T00:05:00.248Z,791.00
2023-05-06T00:06:00.215Z,791.00
2023-05-06T00:07:00.226Z,791.00
2023-05-06T00:08:00.303Z,790.00
2023-05-06T00:09:00.371Z,788.00
2023-05-06T00:10:00.458Z,785.00
2023-05-06T00:11:00.523Z,785.00
2023-05-06T00:12:00.595Z,783.00
2023-05-06T00:13:00.711Z,782.00
2023-05-06T00:14:00.744Z,782.00
2023-05-06T00:15:01.236Z,783.00
2023-05-06T00:16:00.919Z,783.00
2023-05-06T00:17:00.870Z,783.00
2023-05-06T00:18:00.951Z,782.00
2023-05-06T00:19:00.993Z,783.00
2023-05-06T00:20:00.941Z,784.00
2023-05-06T00:21:00.979Z,785.00
2023-05-06T00:22:00.967Z,784.00
2023-05-06T00:23:01.028Z,782.00
2023-05-06T00:24:01.019Z,782.00
2023-05-06T00:25:01.057Z,781.00
2023-05-06T00:26:01.071Z,780.00
2023-05-06T00:27:01.087Z,780.00
2023-05-06T00:28:01.114Z,780.00
2023-05-06T00:29:01.113Z,785.00
2023-05-06T00:30:01.223Z,786.00
2023-05-06T00:31:01.392Z,785.00
2023-05-06T00:32:01.262Z,784.00
2023-05-06T00:33:01.247Z,783.00
2023-05-06T00:34:01.231Z,782.00
2023-05-06T00:35:01.248Z,784.00
2023-05-06T00:36:01.287Z,785.00
2023-05-06T00:37:01.288Z,787.00
2023-05-06T00:38:01.313Z,787.00
2023-05-06T00:39:01.337Z,790.00
2023-05-06T00:40:01.368Z,788.00
2023-05-06T00:41:01.370Z,787.00
2023-05-06T00:42:01.410Z,785.00
2023-05-06T00:43:01.418Z,781.00
2023-05-06T00:44:01.438Z,780.00
2023-05-06T00:45:01.466Z,778.00
2023-05-06T00:46:01.568Z,779.00
2023-05-06T00:47:01.567Z,776.00
2023-05-06T00:48:01.658Z,775.00
2023-05-06T00:49:01.541Z,777.00
2023-05-06T00:50:01.564Z,776.00
2023-05-06T00:51:01.591Z,775.00
2023-05-06T00:52:01.635Z,773.00
2023-05-06T00:53:01.629Z,771.00
2023-05-06T00:54:01.656Z,769.00
2023-05-06T00:55:01.670Z,768.00
2023-05-06T00:56:01.687Z,772.00
2023-05-06T00:57:01.715Z,770.00
2023-05-06T00:58:01.777Z,770.00
2023-05-06T00:59:01.753Z,770.00
2023-05-06T01:00:01.773Z,771.00
2023-05-06T01:01:01.949Z,770.00
2023-05-06T01:02:01.839Z,769.00
2023-05-06T01:03:02.045Z,767.00
2023-05-06T01:04:01.894Z,766.00
2023-05-06T01:05:01.944Z,768.00
2023-05-06T01:06:01.926Z,771.00
2023-05-06T01:07:01.948Z,771.00
2023-05-06T01:08:01.978Z,772.00
2023-05-06T01:09:02.013Z,772.00
2023-05-06T01:10:02.046Z,772.00
2023-05-06T01:11:02.059Z,770.00
2023-05-06T01:12:02.087Z,768.00
2023-05-06T01:13:02.144Z,769.00
2023-05-06T01:14:02.143Z,765.00
2023-05-06T01:15:02.171Z,766.00
2023-05-06T01:16:02.187Z,764.00
2023-05-06T01:17:02.290Z,764.00
2023-05-06T01:18:02.324Z,766.00
2023-05-06T01:19:02.317Z,765.00
2023-05-06T01:20:02.292Z,768.00
2023-05-06T01:21:02.321Z,768.00
2023-05-06T01:22:02.348Z,768.00
2023-05-06T01:23:02.469Z,768.00
2023-05-06T01:24:02.394Z,769.00
2023-05-06T01:25:02.423Z,770.00
2023-05-06T01:26:02.450Z,771.00
2023-05-06T01:27:02.470Z,770.00
2023-05-06T01:28:02.511Z,770.00
2023-05-06T01:29:02.529Z,768.00
2023-05-06T01:30:02.558Z,769.00
2023-05-06T01:31:02.621Z,768.00
2023-05-06T01:32:02.597Z,768.00
2023-05-06T01:33:02.682Z,768.00
2023-05-06T01:34:02.648Z,769.00
2023-05-06T01:35:02.741Z,768.00
2023-05-06T01:36:02.706Z,768.00
2023-05-06T01:37:02.723Z,767.00
2023-05-06T01:38:02.749Z,768.00
2023-05-06T01:39:02.779Z,769.00
2023-05-06T01:40:02.811Z,767.00
2023-05-06T01:41:02.864Z,766.00
2023-05-06T01:42:02.886Z,767.00
2023-05-06T01:43:02.902Z,767.00
2023-05-06T01:44:02.912Z,766.00
2023-05-06T01:45:02.932Z,765.00
2023-05-06T01:46:02.980Z,765.00
2023-05-06T01:47:02.992Z,764.00
2023-05-06T01:48:03.097Z,763.00
2023-05-06T01:49:03.051Z,764.00
2023-05-06T01:50:03.073Z,764.00
2023-05-06T01:51:03.172Z,764.00
2023-05-06T01:52:03.136Z,764.00
2023-05-06T01:53:03.168Z,765.00
2023-05-06T01:54:03.187Z,767.00
2023-05-06T01:55:03.197Z,766.00
2023-05-06T01:56:03.220Z,765.00
2023-05-06T01:57:03.245Z,765.00
2023-05-06T01:58:03.284Z,765.00
2023-05-06T01:59:03.322Z,766.00
2023-05-06T02:00:03.333Z,763.00
2023-05-06T02:01:03.360Z,765.00
2023-05-06T02:02:03.473Z,766.00
2023-05-06T02:03:03.598Z,767.00
2023-05-06T02:04:03.592Z,767.00
2023-05-06T02:05:03.454Z,768.00
2023-05-06T02:06:03.501Z,768.00
2023-05-06T02:07:03.508Z,767.00
2023-05-06T02:08:03.524Z,765.00
2023-05-06T02:09:03.557Z,769.00
2023-05-06T02:10:03.579Z,772.00
2023-05-06T02:11:03.605Z,772.00
2023-05-06T02:12:03.653Z,770.00
2023-05-06T02:13:03.681Z,767.00
2023-05-06T02:14:03.702Z,765.00
2023-05-06T02:15:03.784Z,766.00
2023-05-06T02:16:03.790Z,766.00
2023-05-06T02:17:03.765Z,766.00
2023-05-06T02:18:03.866Z,768.00
2023-05-06T02:19:03.820Z,771.00
2023-05-06T02:20:03.838Z,769.00
2023-05-06T02:21:03.869Z,769.00
2023-05-06T02:22:03.895Z,769.00
2023-05-06T02:23:03.991Z,766.00
2023-05-06T02:24:03.997Z,768.00
2023-05-06T02:25:04.082Z,768.00
2023-05-06T02:26:04.021Z,767.00
2023-05-06T02:27:04.057Z,768.00
2023-05-06T02:28:04.081Z,767.00
2023-05-06T02:29:04.089Z,768.00
2023-05-06T02:30:04.128Z,770.00
2023-05-06T02:31:04.152Z,770.00
2023-05-06T02:32:04.171Z,769.00
2023-05-06T02:33:04.257Z,766.00
2023-05-06T02:34:04.230Z,764.00
2023-05-06T02:35:04.249Z,765.00
2023-05-06T02:36:04.290Z,765.00
2023-05-06T02:37:04.325Z,765.00
2023-05-06T02:38:04.356Z,765.00
2023-05-06T02:39:04.544Z,763.00
2023-05-06T02:40:04.414Z,761.00
2023-05-06T02:41:04.437Z,760.00
2023-05-06T02:42:04.476Z,760.00
2023-05-06T02:43:04.561Z,757.00
2023-05-06T02:44:04.529Z,759.00
2023-05-06T02:45:04.564Z,762.00
2023-05-06T02:46:04.648Z,762.00
2023-05-06T02:47:04.627Z,762.00
2023-05-06T02:48:04.689Z,762.00
2023-05-06T02:49:04.678Z,761.00
2023-05-06T02:50:04.706Z,760.00
2023-05-06T02:51:04.736Z,758.00
2023-05-06T02:52:04.771Z,759.00
2023-05-06T02:53:04.811Z,757.00
2023-05-06T02:54:04.817Z,760.00
2023-05-06T02:55:04.851Z,763.00
2023-05-06T02:56:04.888Z,766.00
2023-05-06T02:57:04.903Z,765.00
2023-05-06T02:58:04.934Z,762.00
2023-05-06T02:59:04.953Z,761.00
2023-05-06T03:00:04.990Z,761.00
2023-05-06T03:01:05.046Z,760.00
2023-05-06T03:02:05.029Z,759.00
2023-05-06T03:03:05.139Z,759.00
2023-05-06T03:04:05.145Z,760.00
2023-05-06T03:05:05.128Z,762.00
2023-05-06T03:06:05.152Z,759.00
2023-05-06T03:07:05.178Z,759.00
2023-05-06T03:08:05.204Z,759.00
2023-05-06T03:09:05.241Z,759.00
2023-05-06T03:10:05.291Z,757.00
2023-05-06T03:11:06.749Z,757.00
2023-05-06T03:12:05.430Z,755.00
2023-05-06T03:13:05.514Z,756.00
2023-05-06T03:14:05.488Z,756.00
2023-05-06T03:15:05.516Z,756.00
2023-05-06T03:16:05.630Z,757.00
2023-05-06T03:17:05.587Z,756.00
2023-05-06T03:18:05.937Z,756.00
2023-05-06T03:19:05.640Z,754.00
2023-05-06T03:20:05.669Z,757.00
2023-05-06T03:21:05.712Z,757.00
2023-05-06T03:22:05.720Z,758.00
2023-05-06T03:23:05.758Z,760.00
2023-05-06T03:24:05.789Z,760.00
2023-05-06T03:25:05.817Z,760.00
2023-05-06T03:26:05.878Z,761.00
2023-05-06T03:27:06.002Z,759.00
2023-05-06T03:28:05.908Z,755.00
2023-05-06T03:29:05.974Z,754.00
2023-05-06T03:30:05.963Z,752.00
2023-05-06T03:31:06.015Z,754.00
2023-05-06T03:32:06.025Z,755.00
2023-05-06T03:33:06.114Z,754.00
2023-05-06T03:34:06.099Z,756.00
2023-05-06T03:35:06.129Z,754.00
2023-05-06T03:36:06.191Z,753.00
2023-05-06T03:37:06.184Z,751.00
2023-05-06T03:38:06.212Z,749.00
2023-05-06T03:39:06.241Z,748.00
2023-05-06T03:40:06.283Z,748.00
2023-05-06T03:41:06.295Z,751.00
2023-05-06T03:42:07.875Z,753.00
2023-05-06T03:43:06.385Z,753.00
2023-05-06T03:44:06.340Z,754.00
2023-05-06T03:45:06.324Z,755.00
2023-05-06T03:46:06.375Z,755.00
2023-05-06T03:47:06.306Z,756.00
2023-05-06T03:48:06.374Z,759.00
2023-05-06T03:49:06.295Z,761.00
2023-05-06T03:50:06.323Z,761.00
2023-05-06T03:51:06.282Z,759.00
2023-05-06T03:52:06.284Z,760.00
2023-05-06T03:53:06.287Z,758.00
2023-05-06T03:54:06.273Z,757.00
2023-05-06T03:55:06.300Z,757.00
2023-05-06T03:56:06.278Z,758.00
2023-05-06T03:57:06.271Z,756.00
2023-05-06T03:58:06.283Z,756.00
2023-05-06T03:59:06.420Z,755.00
2023-05-06T04:00:06.282Z,754.00
2023-05-06T04:01:06.338Z,753.00
2023-05-06T04:02:06.316Z,755.00
2023-05-06T04:03:06.387Z,753.00
2023-05-06T04:04:06.328Z,751.00
2023-05-06T04:05:06.291Z,751.00
2023-05-06T04:06:06.288Z,749.00
2023-05-06T04:07:06.305Z,746.00
2023-05-06T04:08:06.299Z,747.00
2023-05-06T04:09:06.355Z,747.00
2023-05-06T04:10:06.301Z,747.00
2023-05-06T04:11:06.319Z,747.00
2023-05-06T04:12:06.328Z,746.00
2023-05-06T04:13:06.331Z,744.00
2023-05-06T04:14:06.307Z,746.00
2023-05-06T04:15:06.358Z,746.00
2023-05-06T04:16:06.320Z,753.00
2023-05-06T04:17:06.307Z,753.00
2023-05-06T04:18:06.323Z,755.00
2023-05-06T04:19:06.622Z,753.00
2023-05-06T04:20:06.313Z,752.00
2023-05-06T04:21:06.309Z,754.00
2023-05-06T04:22:06.315Z,755.00
2023-05-06T04:23:06.333Z,754.00
2023-05-06T04:24:06.326Z,752.00
2023-05-06T04:25:06.331Z,753.00
2023-05-06T04:26:06.344Z,752.00
2023-05-06T04:27:06.341Z,749.00
2023-05-06T04:28:06.367Z,748.00
2023-05-06T04:29:06.370Z,747.00
2023-05-06T04:30:06.356Z,747.00
2023-05-06T04:31:06.435Z,748.00
2023-05-06T04:32:06.404Z,747.00
2023-05-06T04:33:06.413Z,746.00
2023-05-06T04:34:06.410Z,750.00
2023-05-06T04:35:06.396Z,750.00
2023-05-06T04:36:06.404Z,751.00
2023-05-06T04:37:06.409Z,751.00
2023-05-06T04:38:06.414Z,754.00
2023-05-06T04:39:06.420Z,754.00
2023-05-06T04:40:06.427Z,752.00
2023-05-06T04:41:06.452Z,750.00
2023-05-06T04:42:06.443Z,753.00
2023-05-06T04:43:06.456Z,754.00
2023-05-06T04:44:06.447Z,752.00
2023-05-06T04:45:06.483Z,749.00
2023-05-06T04:46:06.480Z,747.00
2023-05-06T04:47:06.626Z,747.00
2023-05-06T04:48:06.501Z,745.00
2023-05-06T04:49:06.455Z,744.00
2023-05-06T04:50:06.478Z,747.00
2023-05-06T04:51:06.519Z,748.00
2023-05-06T04:52:06.486Z,752.00
2023-05-06T04:53:06.541Z,752.00
2023-05-06T04:54:06.472Z,749.00
2023-05-06T04:55:06.468Z,747.00
2023-05-06T04:56:06.451Z,746.00
2023-05-06T04:57:06.451Z,747.00
2023-05-06T04:58:06.462Z,746.00
2023-05-06T04:59:06.450Z,745.00
2023-05-06T05:00:06.516Z,742.00
2023-05-06T05:01:06.529Z,741.00
2023-05-06T05:02:06.591Z,738.00
2023-05-06T05:03:06.654Z,737.00
2023-05-06T05:04:06.548Z,735.00
2023-05-06T05:05:06.590Z,737.00
2023-05-06T05:06:06.609Z,739.00
2023-05-06T05:07:06.652Z,741.00
2023-05-06T05:08:06.697Z,742.00
2023-05-06T05:09:06.754Z,741.00
2023-05-06T05:10:06.761Z,740.00
2023-05-06T05:11:06.789Z,741.00
2023-05-06T05:12:06.830Z,741.00
2023-05-06T05:13:06.919Z,741.00
2023-05-06T05:14:06.898Z,738.00
2023-05-06T05:15:07.027Z,738.00
2023-05-06T05:16:06.954Z,740.00
2023-05-06T05:17:07.143Z,739.00
2023-05-06T05:18:07.070Z,741.00
2023-05-06T05:19:09.098Z,744.00
2023-05-06T05:20:07.110Z,746.00
2023-05-06T05:21:07.130Z,745.00
2023-05-06T05:22:07.161Z,748.00
2023-05-06T05:23:07.199Z,749.00
2023-05-06T05:24:07.232Z,749.00
2023-05-06T05:25:08.396Z,746.00
2023-05-06T05:26:07.291Z,749.00
2023-05-06T05:27:07.327Z,746.00
2023-05-06T05:28:07.408Z,747.00
2023-05-06T05:29:07.402Z,749.00
2023-05-06T05:30:07.448Z,746.00
2023-05-06T05:31:09.742Z,745.00
2023-05-06T05:32:07.472Z,743.00
2023-05-06T05:33:07.533Z,742.00
2023-05-06T05:34:07.459Z,741.00
2023-05-06T05:35:09.510Z,740.00
2023-05-06T05:36:07.456Z,737.00
2023-05-06T05:37:07.465Z,738.00
2023-05-06T05:38:08.399Z,739.00
2023-05-06T05:39:07.473Z,740.00
2023-05-06T05:40:07.484Z,739.00
2023-05-06T05:41:07.472Z,740.00
2023-05-06T05:42:07.485Z,741.00
2023-05-06T05:43:07.482Z,740.00
2023-05-06T05:44:07.477Z,740.00
2023-05-06T05:45:07.582Z,740.00
2023-05-06T05:46:07.497Z,741.00
2023-05-06T05:47:07.469Z,738.00
2023-05-06T05:48:07.558Z,739.00
2023-05-06T05:49:07.506Z,740.00
2023-05-06T05:50:07.624Z,739.00
2023-05-06T05:51:07.639Z,741.00
2023-05-06T05:52:07.620Z,739.00
2023-05-06T05:53:07.657Z,737.00
2023-05-06T05:54:07.698Z,736.00
2023-05-06T05:55:07.992Z,738.00
2023-05-06T05:56:07.744Z,739.00
2023-05-06T05:57:07.769Z,740.00
2023-05-06T05:58:07.810Z,740.00
2023-05-06T05:59:07.842Z,742.00
2023-05-06T06:00:07.870Z,740.00
2023-05-06T06:01:07.904Z,739.00
2023-05-06T06:02:07.934Z,737.00
2023-05-06T06:03:08.077Z,736.00
2023-05-06T06:04:08.121Z,737.00
2023-05-06T06:05:08.120Z,735.00
2023-05-06T06:06:08.066Z,733.00
2023-05-06T06:07:08.157Z,736.00
2023-05-06T06:08:08.133Z,735.00
2023-05-06T06:09:08.173Z,733.00
2023-05-06T06:10:08.208Z,734.00
2023-05-06T06:11:08.225Z,734.00
2023-05-06T06:12:08.265Z,738.00
2023-05-06T06:13:08.332Z,739.00
2023-05-06T06:14:08.318Z,739.00
2023-05-06T06:15:08.631Z,740.00
2023-05-06T06:16:08.424Z,734.00
2023-05-06T06:17:08.438Z,737.00
2023-05-06T06:18:08.519Z,734.00
2023-05-06T06:19:08.513Z,734.00
2023-05-06T06:20:08.551Z,733.00
2023-05-06T06:21:08.583Z,734.00
2023-05-06T06:22:08.629Z,734.00
2023-05-06T06:23:08.720Z,732.00
2023-05-06T06:24:08.734Z,733.00
2023-05-06T06:25:08.941Z,733.00
2023-05-06T06:26:10.455Z,731.00
2023-05-06T06:27:08.766Z,732.00
2023-05-06T06:28:08.776Z,731.00
2023-05-06T06:29:08.772Z,730.00
2023-05-06T06:30:08.806Z,731.00
2023-05-06T06:31:08.792Z,733.00
2023-05-06T06:32:08.808Z,737.00
2023-05-06T06:33:08.796Z,735.00
2023-05-06T06:34:08.783Z,736.00
2023-05-06T06:35:08.966Z,738.00
2023-05-06T06:36:08.784Z,737.00
2023-05-06T06:37:08.776Z,732.00
2023-05-06T06:38:08.778Z,731.00
2023-05-06T06:39:08.771Z,732.00
2023-05-06T06:40:08.773Z,733.00
2023-05-06T06:41:08.772Z,735.00
2023-05-06T06:42:08.766Z,736.00
2023-05-06T06:43:08.767Z,736.00
2023-05-06T06:44:08.763Z,737.00
2023-05-06T06:45:08.889Z,736.00
2023-05-06T06:46:08.796Z,737.00
2023-05-06T06:47:08.761Z,737.00
2023-05-06T06:48:08.809Z,737.00
2023-05-06T06:49:08.769Z,737.00
2023-05-06T06:50:08.783Z,739.00
2023-05-06T06:51:08.772Z,737.00
2023-05-06T06:52:08.772Z,736.00
2023-05-06T06:53:08.797Z,736.00
2023-05-06T06:54:08.793Z,734.00
2023-05-06T06:55:08.916Z,735.00
2023-05-06T06:56:08.797Z,734.00
2023-05-06T06:57:08.799Z,732.00
2023-05-06T06:58:08.798Z,732.00
2023-05-06T06:59:08.808Z,731.00
2023-05-06T07:00:08.809Z,731.00
2023-05-06T07:01:08.853Z,728.00
2023-05-06T07:02:08.791Z,727.00
2023-05-06T07:03:08.855Z,728.00
2023-05-06T07:04:08.829Z,728.00
2023-05-06T07:05:08.996Z,729.00
2023-05-06T07:06:08.832Z,730.00
2023-05-06T07:07:08.816Z,732.00
2023-05-06T07:08:08.811Z,731.00
2023-05-06T07:09:08.830Z,730.00
2023-05-06T07:10:08.833Z,732.00
2023-05-06T07:11:08.960Z,730.00
2023-05-06T07:12:08.835Z,730.00
2023-05-06T07:13:08.865Z,727.00
2023-05-06T07:14:08.858Z,727.00
2023-05-06T07:15:09.303Z,726.00
2023-05-06T07:16:08.891Z,728.00
2023-05-06T07:17:08.915Z,728.00
2023-05-06T07:18:08.926Z,730.00
2023-05-06T07:19:08.896Z,732.00
2023-05-06T07:20:08.914Z,730.00
2023-05-06T07:21:08.907Z,728.00
2023-05-06T07:22:08.909Z,726.00
2023-05-06T07:23:08.930Z,725.00
2023-05-06T07:24:08.934Z,725.00
2023-05-06T07:25:09.113Z,723.00
2023-05-06T07:26:08.943Z,723.00
2023-05-06T07:27:09.090Z,722.00
2023-05-06T07:28:08.977Z,721.00
2023-05-06T07:29:08.961Z,723.00
2023-05-06T07:30:08.979Z,722.00
2023-05-06T07:31:09.048Z,722.00
2023-05-06T07:32:09.064Z,725.00
2023-05-06T07:33:08.989Z,728.00
2023-05-06T07:34:08.979Z,731.00
2023-05-06T07:35:09.116Z,734.00
2023-05-06T07:36:08.993Z,734.00
2023-05-06T07:37:09.001Z,734.00
2023-05-06T07:38:09.023Z,733.00
2023-05-06T07:39:09.019Z,731.00
2023-05-06T07:40:09.028Z,732.00
2023-05-06T07:41:09.059Z,730.00
2023-05-06T07:42:09.028Z,730.00
2023-05-06T07:43:09.085Z,729.00
2023-05-06T07:44:09.027Z,730.00
2023-05-06T07:45:09.201Z,728.00
2023-05-06T07:46:09.096Z,730.00
2023-05-06T07:47:09.142Z,729.00
2023-05-06T07:48:09.078Z,728.00
2023-05-06T07:49:09.069Z,729.00
2023-05-06T07:50:09.090Z,730.00
2023-05-06T07:51:09.072Z,732.00
2023-05-06T07:52:09.071Z,731.00
2023-05-06T07:53:09.078Z,730.00
2023-05-06T07:54:09.068Z,731.00
2023-05-06T07:55:09.325Z,730.00
2023-05-06T07:56:09.080Z,729.00
2023-05-06T07:57:09.086Z,729.00
2023-05-06T07:58:09.082Z,732.00
2023-05-06T07:59:09.087Z,732.00
2023-05-06T08:00:09.094Z,733.00
2023-05-06T08:01:09.097Z,731.00
2023-05-06T08:02:09.117Z,729.00
2023-05-06T08:03:09.158Z,730.00
2023-05-06T08:04:09.190Z,731.00
2023-05-06T08:05:09.430Z,730.00
2023-05-06T08:06:09.128Z,729.00
2023-05-06T08:07:09.138Z,729.00
2023-05-06T08:08:09.149Z,730.00
2023-05-06T08:09:10.149Z,729.00
2023-05-06T08:10:09.172Z,725.00
2023-05-06T08:11:09.174Z,723.00
2023-05-06T08:12:09.191Z,724.00
2023-05-06T08:13:09.221Z,724.00
2023-05-06T08:14:09.207Z,726.00
2023-05-06T08:15:09.595Z,725.00
2023-05-06T08:16:09.305Z,725.00
2023-05-06T08:17:09.242Z,724.00
2023-05-06T08:18:20.889Z,724.00
2023-05-06T08:19:10.255Z,724.00
2023-05-06T08:20:09.275Z,723.00
2023-05-06T08:21:09.988Z,723.00
2023-05-06T08:22:09.264Z,720.00
2023-05-06T08:23:09.280Z,721.00
2023-05-06T08:24:09.278Z,718.00
2023-05-06T08:25:09.681Z,717.00
2023-05-06T08:26:09.300Z,718.00
2023-05-06T08:27:09.304Z,719.00
2023-05-06T08:28:09.308Z,720.00
2023-05-06T08:29:09.325Z,721.00
2023-05-06T08:30:09.331Z,722.00
2023-05-06T08:31:09.433Z,723.00
2023-05-06T08:32:09.423Z,722.00
2023-05-06T08:33:09.392Z,723.00
2023-05-06T08:34:09.356Z,721.00
2023-05-06T08:35:09.710Z,720.00
2023-05-06T08:36:09.374Z,717.00
2023-05-06T08:37:09.390Z,716.00
2023-05-06T08:38:09.395Z,717.00
2023-05-06T08:39:09.401Z,719.00
2023-05-06T08:40:09.417Z,721.00
2023-05-06T08:41:09.420Z,721.00
2023-05-06T08:42:09.433Z,718.00
2023-05-06T08:43:09.452Z,717.00
2023-05-06T08:44:09.444Z,718.00
2023-05-06T08:45:09.537Z,716.00
2023-05-06T08:46:09.554Z,713.00
2023-05-06T08:47:09.582Z,714.00
2023-05-06T08:48:09.458Z,715.00
2023-05-06T08:49:09.477Z,717.00
2023-05-06T08:50:09.462Z,717.00
2023-05-06T08:51:09.468Z,717.00
2023-05-06T08:52:09.489Z,717.00
2023-05-06T08:53:09.536Z,719.00
2023-05-06T08:54:09.555Z,721.00
2023-05-06T08:55:09.888Z,722.00
2023-05-06T08:56:09.582Z,722.00
2023-05-06T08:57:12.428Z,720.00
2023-05-06T08:58:09.613Z,720.00
2023-05-06T08:59:09.697Z,721.00
2023-05-06T09:00:09.634Z,722.00
2023-05-06T09:01:09.761Z,721.00
2023-05-06T09:02:09.703Z,720.00
2023-05-06T09:03:09.853Z,721.00
2023-05-06T09:04:09.669Z,720.00
2023-05-06T09:05:09.930Z,717.00
2023-05-06T09:06:09.706Z,718.00
2023-05-06T09:07:09.695Z,715.00
2023-05-06T09:08:09.714Z,715.00
2023-05-06T09:09:09.716Z,715.00
2023-05-06T09:10:09.875Z,715.00
2023-05-06T09:11:09.714Z,716.00
2023-05-06T09:12:09.714Z,713.00
2023-05-06T09:13:09.744Z,711.00
2023-05-06T09:14:09.730Z,714.00
2023-05-06T09:15:09.831Z,715.00
2023-05-06T09:16:09.758Z,716.00
2023-05-06T09:17:09.792Z,716.00
2023-05-06T09:18:09.821Z,715.00
2023-05-06T09:19:09.824Z,715.00
2023-05-06T09:20:09.759Z,714.00
2023-05-06T09:21:09.753Z,713.00
2023-05-06T09:22:09.773Z,714.00
2023-05-06T09:23:09.767Z,713.00
2023-05-06T09:24:09.768Z,713.00
2023-05-06T09:25:09.964Z,712.00
2023-05-06T09:26:09.782Z,714.00
2023-05-06T09:27:10.630Z,715.00
2023-05-06T09:28:09.789Z,717.00
2023-05-06T09:29:09.800Z,717.00
2023-05-06T09:30:09.794Z,720.00
2023-05-06T09:31:09.822Z,718.00
2023-05-06T09:32:09.803Z,716.00
2023-05-06T09:33:09.990Z,716.00
2023-05-06T09:34:09.828Z,718.00
2023-05-06T09:35:10.138Z,722.00
2023-05-06T09:36:09.833Z,720.00
2023-05-06T09:37:09.849Z,717.00
2023-05-06T09:38:09.859Z,718.00
2023-05-06T09:39:09.960Z,717.00
2023-05-06T09:40:09.860Z,713.00
2023-05-06T09:41:09.868Z,715.00
2023-05-06T09:42:09.865Z,716.00
2023-05-06T09:43:09.877Z,713.00
2023-05-06T09:44:09.882Z,714.00
2023-05-06T09:45:10.212Z,713.00
2023-05-06T09:46:09.890Z,715.00
2023-05-06T09:47:09.897Z,716.00
2023-05-06T09:48:10.019Z,718.00
2023-05-06T09:49:09.907Z,718.00
2023-05-06T09:50:09.942Z,717.00
2023-05-06T09:51:09.995Z,716.00
2023-05-06T09:52:09.919Z,715.00
2023-05-06T09:53:09.950Z,714.00
2023-05-06T09:54:09.937Z,713.00
2023-05-06T09:55:10.234Z,712.00
2023-05-06T09:56:09.915Z,715.00
2023-05-06T09:57:09.916Z,715.00
2023-05-06T09:58:09.925Z,713.00
2023-05-06T09:59:09.930Z,714.00
2023-05-06T10:00:09.920Z,714.00
2023-05-06T10:01:09.991Z,710.00
2023-05-06T10:02:09.986Z,707.00
2023-05-06T10:03:10.006Z,707.00
2023-05-06T10:04:10.344Z,705.00
2023-05-06T10:05:10.889Z,708.00
2023-05-06T10:06:09.955Z,709.00
2023-05-06T10:07:10.024Z,707.00
2023-05-06T10:08:09.976Z,704.00
2023-05-06T10:09:09.984Z,707.00
2023-05-06T10:10:09.993Z,708.00
2023-05-06T10:11:09.998Z,708.00
2023-05-06T10:12:10.012Z,708.00
2023-05-06T10:13:10.070Z,706.00
2023-05-06T10:14:10.089Z,705.00
2023-05-06T10:15:10.254Z,704.00
2023-05-06T10:16:10.099Z,704.00
2023-05-06T10:17:10.065Z,706.00
2023-05-06T10:18:10.138Z,708.00
2023-05-06T10:19:10.095Z,706.00
2023-05-06T10:20:10.102Z,708.00
2023-05-06T10:21:10.102Z,710.00
2023-05-06T10:22:10.095Z,711.00
2023-05-06T10:23:10.186Z,709.00
2023-05-06T10:24:10.121Z,710.00
2023-05-06T10:25:10.370Z,709.00
2023-05-06T10:26:10.123Z,710.00
2023-05-06T10:27:10.129Z,711.00
2023-05-06T10:28:16.331Z,710.00
2023-05-06T10:29:11.154Z,712.00
2023-05-06T10:30:10.173Z,712.00
2023-05-06T10:31:10.195Z,712.00
2023-05-06T10:32:10.174Z,709.00
2023-05-06T10:33:10.180Z,710.00
2023-05-06T10:34:10.192Z,710.00
2023-05-06T10:35:10.354Z,710.00
2023-05-06T10:36:10.205Z,710.00
2023-05-06T10:37:10.218Z,710.00
2023-05-06T10:38:10.204Z,709.00
2023-05-06T10:39:10.276Z,711.00
2023-05-06T10:40:10.205Z,711.00
2023-05-06T10:41:10.202Z,712.00
2023-05-06T10:42:10.210Z,711.00
2023-05-06T10:43:10.210Z,709.00
2023-05-06T10:44:10.275Z,708.00
2023-05-06T10:45:10.329Z,710.00
2023-05-06T10:46:10.321Z,709.00
2023-05-06T10:47:10.225Z,707.00
2023-05-06T10:48:10.224Z,708.00
2023-05-06T10:49:10.227Z,707.00
2023-05-06T10:50:10.261Z,709.00
2023-05-06T10:51:10.241Z,706.00
2023-05-06T10:52:10.257Z,706.00
2023-05-06T10:53:10.257Z,705.00
2023-05-06T10:54:10.257Z,705.00
2023-05-06T10:55:10.508Z,703.00
2023-05-06T10:56:10.279Z,703.00
2023-05-06T10:57:10.281Z,704.00
2023-05-06T10:58:10.319Z,705.00
2023-05-06T10:59:10.323Z,702.00
2023-05-06T11:00:10.348Z,701.00
2023-05-06T11:01:10.391Z,702.00
2023-05-06T11:02:10.353Z,704.00
2023-05-06T11:03:10.374Z,704.00
2023-05-06T11:04:10.340Z,705.00
2023-05-06T11:05:10.454Z,705.00
2023-05-06T11:06:10.328Z,706.00
2023-05-06T11:07:10.335Z,708.00
2023-05-06T11:08:10.343Z,704.00
2023-05-06T11:09:10.352Z,707.00
2023-05-06T11:10:10.364Z,705.00
2023-05-06T11:11:10.377Z,702.00
2023-05-06T11:12:10.370Z,702.00
2023-05-06T11:13:10.401Z,699.00
2023-05-06T11:14:10.356Z,697.00
2023-05-06T11:15:10.572Z,696.00
2023-05-06T11:16:10.401Z,698.00
2023-05-06T11:17:10.420Z,701.00
2023-05-06T11:18:10.409Z,700.00
2023-05-06T11:19:10.420Z,701.00
2023-05-06T11:20:10.671Z,703.00
2023-05-06T11:21:10.461Z,705.00
2023-05-06T11:22:10.462Z,702.00
2023-05-06T11:23:10.466Z,701.00
2023-05-06T11:24:10.480Z,700.00
2023-05-06T11:25:10.507Z,701.00
2023-05-06T11:26:10.521Z,701.00
2023-05-06T11:27:10.646Z,700.00
2023-05-06T11:28:10.520Z,700.00
2023-05-06T11:29:10.540Z,699.00
2023-05-06T11:30:10.731Z,698.00
2023-05-06T11:31:10.627Z,697.00
2023-05-06T11:32:10.556Z,696.00
2023-05-06T11:33:10.661Z,695.00
2023-05-06T11:34:10.592Z,696.00
2023-05-06T11:35:10.594Z,696.00
2023-05-06T11:36:10.599Z,693.00
2023-05-06T11:37:10.638Z,690.00
2023-05-06T11:38:10.665Z,691.00
2023-05-06T11:39:10.625Z,691.00
2023-05-06T11:40:10.925Z,690.00
2023-05-06T11:41:10.650Z,689.00
2023-05-06T11:42:10.653Z,687.00
2023-05-06T11:43:10.734Z,688.00
2023-05-06T11:44:11.650Z,688.00
2023-05-06T11:45:10.683Z,687.00
2023-05-06T11:46:10.750Z,691.00
2023-05-06T11:47:10.693Z,690.00
2023-05-06T11:48:10.700Z,690.00
2023-05-06T11:49:10.710Z,690.00
2023-05-06T11:50:10.854Z,692.00
2023-05-06T11:51:10.741Z,691.00
2023-05-06T11:52:10.834Z,690.00
2023-05-06T11:53:10.754Z,690.00
2023-05-06T11:54:10.788Z,692.00
2023-05-06T11:55:10.802Z,691.00
2023-05-06T11:56:10.812Z,690.00
2023-05-06T11:57:10.817Z,691.00
2023-05-06T11:58:10.831Z,692.00
2023-05-06T11:59:10.907Z,690.00
2023-05-06T12:00:11.067Z,689.00
2023-05-06T12:01:10.861Z,688.00
2023-05-06T12:02:10.882Z,690.00
2023-05-06T12:03:10.943Z,690.00
2023-05-06T12:04:10.987Z,690.00
2023-05-06T12:05:10.903Z,691.00
2023-05-06T12:06:10.915Z,689.00
2023-05-06T12:07:10.945Z,685.00
2023-05-06T12:08:23.491Z,682.00
2023-05-06T12:09:11.950Z,685.00
2023-05-06T12:10:11.166Z,686.00
2023-05-06T12:11:10.929Z,684.00
2023-05-06T12:12:10.929Z,686.00
2023-05-06T12:13:10.960Z,687.00
2023-05-06T12:14:10.951Z,684.00
2023-05-06T12:15:11.015Z,684.00
2023-05-06T12:16:10.973Z,685.00
2023-05-06T12:17:10.955Z,684.00
2023-05-06T12:18:10.960Z,685.00
2023-05-06T12:19:10.970Z,686.00
2023-05-06T12:20:11.259Z,686.00
2023-05-06T12:21:10.974Z,688.00
2023-05-06T12:22:10.992Z,688.00
2023-05-06T12:23:11.011Z,689.00
2023-05-06T12:24:11.051Z,690.00
2023-05-06T12:25:11.104Z,691.00
2023-05-06T12:26:11.028Z,693.00
2023-05-06T12:27:11.028Z,691.00
2023-05-06T12:28:11.030Z,691.00